sensor_id;sensor_type;location;lat;lon;timestamp;temperature;humidity
8220;DHT22;4151;51.110;7.020;2024-03-02T00:02:12;7.90;99.90
8220;DHT22;4151;51.110;7.020;2024-03-02T00:04:37;7.90;99.90
8220;DHT22;4151;51.110;7.020;2024-03-02T00:07:03;7.80;99.90
8220;DHT22;4151;51.110;7.020;2024-03-02T00:09:29;7.80;99.90
8220;DHT22;4151;51.110;7.020;2024-03-02T00:11:55;7.90;99.90
8220;DHT22;4151;51.110;7.020;2024-03-02T00:14:20;7.90;99.90
8220;DHT22;4151;51.110;7.020;2024-03-02T00:16:46;7.90;99.90
8220;DHT22;4151;51.110;7.020;2024-03-02T00:19:12;7.90;99.90
8220;DHT22;4151;51.110;7.020;2024-03-02T00:21:38;7.80;99.90
8220;DHT22;4151;51.110;7.020;2024-03-02T00:24:33;7.80;99.90
8220;DHT22;4151;51.110;7.020;2024-03-02T00:27:00;7.80;99.90
8220;DHT22;4151;51.110;7.020;2024-03-02T00:29:27;7.80;99.90
8220;DHT22;4151;51.110;7.020;2024-03-02T00:31:54;7.80;99.90
8220;DHT22;4151;51.110;7.020;2024-03-02T00:34:21;7.90;99.90
8220;DHT22;4151;51.110;7.020;2024-03-02T00:36:47;7.90;99.90
8220;DHT22;4151;51.110;7.020;2024-03-02T00:39:15;8.00;99.90
8220;DHT22;4151;51.110;7.020;2024-03-02T00:41:42;8.00;99.90
8220;DHT22;4151;51.110;7.020;2024-03-02T00:44:09;8.00;99.90
8220;DHT22;4151;51.110;7.020;2024-03-02T00:46:39;8.10;99.90
8220;DHT22;4151;51.110;7.020;2024-03-02T00:49:11;8.10;99.90
8220;DHT22;4151;51.110;7.020;2024-03-02T00:51:38;8.20;99.90
8220;DHT22;4151;51.110;7.020;2024-03-02T00:54:05;8.20;99.90
8220;DHT22;4151;51.110;7.020;2024-03-02T00:56:32;8.20;99.90
8220;DHT22;4151;51.110;7.020;2024-03-02T00:59:00;8.30;99.90
8220;DHT22;4151;51.110;7.020;2024-03-02T01:01:25;8.30;99.90
8220;DHT22;4151;51.110;7.020;2024-03-02T01:03:52;8.30;99.90
8220;DHT22;4151;51.110;7.020;2024-03-02T01:06:18;8.40;99.90
8220;DHT22;4151;51.110;7.020;2024-03-02T01:08:44;8.40;99.90
8220;DHT22;4151;51.110;7.020;2024-03-02T01:11:09;8.50;99.90
8220;DHT22;4151;51.110;7.020;2024-03-02T01:13:35;8.50;99.90
8220;DHT22;4151;51.110;7.020;2024-03-02T01:16:01;8.50;99.90
8220;DHT22;4151;51.110;7.020;2024-03-02T01:18:27;8.50;99.90
8220;DHT22;4151;51.110;7.020;2024-03-02T01:20:52;8.50;99.90
8220;DHT22;4151;51.110;7.020;2024-03-02T01:23:20;8.60;99.90
8220;DHT22;4151;51.110;7.020;2024-03-02T01:25:49;8.50;99.90
8220;DHT22;4151;51.110;7.020;2024-03-02T01:28:15;8.50;99.90
8220;DHT22;4151;51.110;7.020;2024-03-02T01:30:41;8.50;99.90
8220;DHT22;4151;51.110;7.020;2024-03-02T01:33:07;8.40;99.90
8220;DHT22;4151;51.110;7.020;2024-03-02T01:35:33;8.40;99.90
8220;DHT22;4151;51.110;7.020;2024-03-02T01:37:58;8.40;99.90
8220;DHT22;4151;51.110;7.020;2024-03-02T01:40:24;8.40;99.90
8220;DHT22;4151;51.110;7.020;2024-03-02T01:42:55;8.30;99.90
8220;DHT22;4151;51.110;7.020;2024-03-02T01:45:23;8.40;99.90
8220;DHT22;4151;51.110;7.020;2024-03-02T01:47:49;8.30;99.90
8220;DHT22;4151;51.110;7.020;2024-03-02T01:50:15;8.30;99.90
8220;DHT22;4151;51.110;7.020;2024-03-02T01:52:41;8.30;99.90
8220;DHT22;4151;51.110;7.020;2024-03-02T01:55:06;8.30;99.90
8220;DHT22;4151;51.110;7.020;2024-03-02T01:57:33;8.30;99.90
8220;DHT22;4151;51.110;7.020;2024-03-02T02:00:00;8.30;99.90
8220;DHT22;4151;51.110;7.020;2024-03-02T02:02:25;8.30;99.90
8220;DHT22;4151;51.110;7.020;2024-03-02T02:04:51;8.40;99.90
8220;DHT22;4151;51.110;7.020;2024-03-02T02:07:17;8.40;99.90
8220;DHT22;4151;51.110;7.020;2024-03-02T02:09:42;8.40;99.90
8220;DHT22;4151;51.110;7.020;2024-03-02T02:12:09;8.40;99.90
8220;DHT22;4151;51.110;7.020;2024-03-02T02:14:35;8.50;99.90
8220;DHT22;4151;51.110;7.020;2024-03-02T02:17:01;8.50;99.90
8220;DHT22;4151;51.110;7.020;2024-03-02T02:19:27;8.50;99.90
8220;DHT22;4151;51.110;7.020;2024-03-02T02:21:52;8.50;99.90
8220;DHT22;4151;51.110;7.020;2024-03-02T02:24:18;8.60;99.90
8220;DHT22;4151;51.110;7.020;2024-03-02T02:26:44;8.60;99.90
8220;DHT22;4151;51.110;7.020;2024-03-02T02:29:09;8.60;99.90
8220;DHT22;4151;51.110;7.020;2024-03-02T02:31:39;8.60;99.90
8220;DHT22;4151;51.110;7.020;2024-03-02T02:34:05;8.60;99.90
8220;DHT22;4151;51.110;7.020;2024-03-02T02:36:31;8.60;99.90
8220;DHT22;4151;51.110;7.020;2024-03-02T02:39:02;8.60;99.90
8220;DHT22;4151;51.110;7.020;2024-03-02T02:41:29;8.70;99.90
8220;DHT22;4151;51.110;7.020;2024-03-02T02:43:55;8.70;99.90
8220;DHT22;4151;51.110;7.020;2024-03-02T02:46:20;8.70;99.90
8220;DHT22;4151;51.110;7.020;2024-03-02T02:48:46;8.70;99.90
8220;DHT22;4151;51.110;7.020;2024-03-02T02:51:12;8.70;99.90
8220;DHT22;4151;51.110;7.020;2024-03-02T02:53:37;8.70;99.90
8220;DHT22;4151;51.110;7.020;2024-03-02T02:56:06;8.70;99.90
8220;DHT22;4151;51.110;7.020;2024-03-02T02:58:31;8.70;99.90
8220;DHT22;4151;51.110;7.020;2024-03-02T03:00:57;8.70;99.90
8220;DHT22;4151;51.110;7.020;2024-03-02T03:03:22;8.60;99.90
8220;DHT22;4151;51.110;7.020;2024-03-02T03:05:49;8.60;99.90
8220;DHT22;4151;51.110;7.020;2024-03-02T03:08:14;8.60;99.90
8220;DHT22;4151;51.110;7.020;2024-03-02T03:10:41;8.70;99.90
8220;DHT22;4151;51.110;7.020;2024-03-02T03:13:07;8.60;99.90
8220;DHT22;4151;51.110;7.020;2024-03-02T03:15:35;8.60;99.90
8220;DHT22;4151;51.110;7.020;2024-03-02T03:18:04;8.60;99.90
8220;DHT22;4151;51.110;7.020;2024-03-02T03:20:30;8.60;99.90
8220;DHT22;4151;51.110;7.020;2024-03-02T03:22:56;8.60;99.90
8220;DHT22;4151;51.110;7.020;2024-03-02T03:25:22;8.60;99.90
8220;DHT22;4151;51.110;7.020;2024-03-02T03:27:48;8.60;99.90
8220;DHT22;4151;51.110;7.020;2024-03-02T03:30:14;8.60;99.90
8220;DHT22;4151;51.110;7.020;2024-03-02T03:32:39;8.60;99.90
8220;DHT22;4151;51.110;7.020;2024-03-02T03:35:06;8.60;99.90
8220;DHT22;4151;51.110;7.020;2024-03-02T03:37:32;8.60;99.90
8220;DHT22;4151;51.110;7.020;2024-03-02T03:40:03;8.60;99.90
8220;DHT22;4151;51.110;7.020;2024-03-02T03:42:35;8.60;99.90
8220;DHT22;4151;51.110;7.020;2024-03-02T03:45:01;8.60;99.90
8220;DHT22;4151;51.110;7.020;2024-03-02T03:47:26;8.60;99.90
8220;DHT22;4151;51.110;7.020;2024-03-02T03:49:52;8.50;99.90
8220;DHT22;4151;51.110;7.020;2024-03-02T03:52:17;8.60;99.90
8220;DHT22;4151;51.110;7.020;2024-03-02T03:54:43;8.50;99.90
8220;DHT22;4151;51.110;7.020;2024-03-02T03:57:10;8.50;99.90
8220;DHT22;4151;51.110;7.020;2024-03-02T03:59:35;8.50;99.90
8220;DHT22;4151;51.110;7.020;2024-03-02T04:02:03;8.50;99.90
8220;DHT22;4151;51.110;7.020;2024-03-02T04:04:28;8.50;99.90
8220;DHT22;4151;51.110;7.020;2024-03-02T04:06:54;8.40;99.90
8220;DHT22;4151;51.110;7.020;2024-03-02T04:09:19;8.40;99.90
8220;DHT22;4151;51.110;7.020;2024-03-02T04:11:45;8.30;99.90
8220;DHT22;4151;51.110;7.020;2024-03-02T04:14:10;8.30;99.90
8220;DHT22;4151;51.110;7.020;2024-03-02T04:16:37;8.30;99.90
8220;DHT22;4151;51.110;7.020;2024-03-02T04:19:03;8.20;99.90
8220;DHT22;4151;51.110;7.020;2024-03-02T04:21:29;8.10;99.90
8220;DHT22;4151;51.110;7.020;2024-03-02T04:23:54;8.10;99.90
8220;DHT22;4151;51.110;7.020;2024-03-02T04:26:24;8.00;99.90
8220;DHT22;4151;51.110;7.020;2024-03-02T04:28:51;8.00;99.90
8220;DHT22;4151;51.110;7.020;2024-03-02T04:31:16;8.00;99.90
8220;DHT22;4151;51.110;7.020;2024-03-02T04:33:42;7.90;99.90
8220;DHT22;4151;51.110;7.020;2024-03-02T04:36:08;7.90;99.90
8220;DHT22;4151;51.110;7.020;2024-03-02T04:38:39;7.90;99.90
8220;DHT22;4151;51.110;7.020;2024-03-02T04:41:06;7.90;99.90
8220;DHT22;4151;51.110;7.020;2024-03-02T04:43:32;7.90;99.90
8220;DHT22;4151;51.110;7.020;2024-03-02T04:45:58;7.80;99.90
8220;DHT22;4151;51.110;7.020;2024-03-02T04:48:24;7.80;99.90
8220;DHT22;4151;51.110;7.020;2024-03-02T04:50:50;7.80;99.90
8220;DHT22;4151;51.110;7.020;2024-03-02T04:53:15;7.80;99.90
8220;DHT22;4151;51.110;7.020;2024-03-02T04:55:41;7.90;99.90
8220;DHT22;4151;51.110;7.020;2024-03-02T04:58:06;7.80;99.90
8220;DHT22;4151;51.110;7.020;2024-03-02T05:00:32;7.80;99.90
8220;DHT22;4151;51.110;7.020;2024-03-02T05:02:58;7.70;99.90
8220;DHT22;4151;51.110;7.020;2024-03-02T05:05:24;7.60;99.90
8220;DHT22;4151;51.110;7.020;2024-03-02T05:07:49;7.60;99.90
8220;DHT22;4151;51.110;7.020;2024-03-02T05:10:15;7.60;99.90
8220;DHT22;4151;51.110;7.020;2024-03-02T05:12:41;7.50;99.90
8220;DHT22;4151;51.110;7.020;2024-03-02T05:15:10;7.60;99.90
8220;DHT22;4151;51.110;7.020;2024-03-02T05:17:37;7.60;99.90
8220;DHT22;4151;51.110;7.020;2024-03-02T05:20:07;7.60;99.90
8220;DHT22;4151;51.110;7.020;2024-03-02T05:22:36;7.50;99.90
8220;DHT22;4151;51.110;7.020;2024-03-02T05:25:02;7.50;99.90
8220;DHT22;4151;51.110;7.020;2024-03-02T05:27:28;7.40;99.90
8220;DHT22;4151;51.110;7.020;2024-03-02T05:29:53;7.40;99.90
8220;DHT22;4151;51.110;7.020;2024-03-02T05:32:19;7.40;99.90
8220;DHT22;4151;51.110;7.020;2024-03-02T05:34:44;7.40;99.90
8220;DHT22;4151;51.110;7.020;2024-03-02T05:37:10;7.30;99.90
8220;DHT22;4151;51.110;7.020;2024-03-02T05:39:36;7.30;99.90
8220;DHT22;4151;51.110;7.020;2024-03-02T05:42:01;7.30;99.90
8220;DHT22;4151;51.110;7.020;2024-03-02T05:44:28;7.20;99.90
8220;DHT22;4151;51.110;7.020;2024-03-02T05:46:54;7.10;99.90
8220;DHT22;4151;51.110;7.020;2024-03-02T05:49:19;7.10;99.90
8220;DHT22;4151;51.110;7.020;2024-03-02T05:51:45;7.10;99.90
8220;DHT22;4151;51.110;7.020;2024-03-02T05:54:10;7.10;99.90
8220;DHT22;4151;51.110;7.020;2024-03-02T05:56:36;7.10;99.90
8220;DHT22;4151;51.110;7.020;2024-03-02T05:59:01;7.10;99.90
8220;DHT22;4151;51.110;7.020;2024-03-02T06:01:44;7.20;99.90
8220;DHT22;4151;51.110;7.020;2024-03-02T06:04:10;7.20;99.90
8220;DHT22;4151;51.110;7.020;2024-03-02T06:06:41;7.10;99.90
8220;DHT22;4151;51.110;7.020;2024-03-02T06:09:07;7.10;99.90
8220;DHT22;4151;51.110;7.020;2024-03-02T06:11:36;7.00;99.90
8220;DHT22;4151;51.110;7.020;2024-03-02T06:14:03;7.00;99.90
8220;DHT22;4151;51.110;7.020;2024-03-02T06:16:28;7.00;99.90
8220;DHT22;4151;51.110;7.020;2024-03-02T06:18:55;7.00;99.90
8220;DHT22;4151;51.110;7.020;2024-03-02T06:21:26;7.00;99.90
8220;DHT22;4151;51.110;7.020;2024-03-02T06:23:51;7.00;99.90
8220;DHT22;4151;51.110;7.020;2024-03-02T06:26:17;7.00;99.90
8220;DHT22;4151;51.110;7.020;2024-03-02T06:28:43;7.00;99.90
8220;DHT22;4151;51.110;7.020;2024-03-02T06:31:09;7.00;99.90
8220;DHT22;4151;51.110;7.020;2024-03-02T06:33:35;7.00;99.90
8220;DHT22;4151;51.110;7.020;2024-03-02T06:36:01;7.00;99.90
8220;DHT22;4151;51.110;7.020;2024-03-02T06:38:27;7.10;99.90
8220;DHT22;4151;51.110;7.020;2024-03-02T06:40:53;7.10;99.90
8220;DHT22;4151;51.110;7.020;2024-03-02T06:43:19;7.10;99.90
8220;DHT22;4151;51.110;7.020;2024-03-02T06:45:48;7.10;99.90
8220;DHT22;4151;51.110;7.020;2024-03-02T06:48:14;7.20;99.90
8220;DHT22;4151;51.110;7.020;2024-03-02T06:50:44;7.30;99.90
8220;DHT22;4151;51.110;7.020;2024-03-02T06:53:09;7.30;99.90
8220;DHT22;4151;51.110;7.020;2024-03-02T06:55:35;7.30;99.90
8220;DHT22;4151;51.110;7.020;2024-03-02T06:58:00;7.30;99.90
8220;DHT22;4151;51.110;7.020;2024-03-02T07:00:26;7.30;99.90
8220;DHT22;4151;51.110;7.020;2024-03-02T07:02:51;7.40;99.90
8220;DHT22;4151;51.110;7.020;2024-03-02T07:05:17;7.50;99.90
8220;DHT22;4151;51.110;7.020;2024-03-02T07:07:43;7.50;99.90
8220;DHT22;4151;51.110;7.020;2024-03-02T07:10:08;7.60;99.90
8220;DHT22;4151;51.110;7.020;2024-03-02T07:12:34;7.60;99.90
8220;DHT22;4151;51.110;7.020;2024-03-02T07:14:59;7.60;99.90
8220;DHT22;4151;51.110;7.020;2024-03-02T07:17:28;7.80;99.90
8220;DHT22;4151;51.110;7.020;2024-03-02T07:19:54;7.80;99.90
8220;DHT22;4151;51.110;7.020;2024-03-02T07:22:19;8.00;99.90
8220;DHT22;4151;51.110;7.020;2024-03-02T07:24:45;8.00;99.90
8220;DHT22;4151;51.110;7.020;2024-03-02T07:27:14;8.00;99.90
8220;DHT22;4151;51.110;7.020;2024-03-02T07:29:39;8.00;99.90
8220;DHT22;4151;51.110;7.020;2024-03-02T07:32:06;8.10;99.90
8220;DHT22;4151;51.110;7.020;2024-03-02T07:34:32;8.10;99.90
8220;DHT22;4151;51.110;7.020;2024-03-02T07:36:57;8.20;99.90
8220;DHT22;4151;51.110;7.020;2024-03-02T07:39:23;8.30;99.90
8220;DHT22;4151;51.110;7.020;2024-03-02T07:41:49;8.40;99.90
8220;DHT22;4151;51.110;7.020;2024-03-02T07:44:15;8.40;99.90
8220;DHT22;4151;51.110;7.020;2024-03-02T07:46:41;8.50;99.90
8220;DHT22;4151;51.110;7.020;2024-03-02T07:49:08;8.60;99.90
8220;DHT22;4151;51.110;7.020;2024-03-02T07:51:33;8.70;99.90
8220;DHT22;4151;51.110;7.020;2024-03-02T07:53:59;8.80;99.90
8220;DHT22;4151;51.110;7.020;2024-03-02T07:56:24;8.90;99.90
8220;DHT22;4151;51.110;7.020;2024-03-02T07:58:50;8.90;99.90
8220;DHT22;4151;51.110;7.020;2024-03-02T08:01:16;8.80;99.90
8220;DHT22;4151;51.110;7.020;2024-03-02T08:03:42;8.80;99.90
8220;DHT22;4151;51.110;7.020;2024-03-02T08:06:16;8.80;99.90
8220;DHT22;4151;51.110;7.020;2024-03-02T08:08:42;8.80;99.90
8220;DHT22;4151;51.110;7.020;2024-03-02T08:11:08;8.80;99.90
8220;DHT22;4151;51.110;7.020;2024-03-02T08:13:33;8.90;99.90
8220;DHT22;4151;51.110;7.020;2024-03-02T08:15:59;8.90;99.90
8220;DHT22;4151;51.110;7.020;2024-03-02T08:18:25;8.90;99.90
8220;DHT22;4151;51.110;7.020;2024-03-02T08:20:50;9.00;99.90
8220;DHT22;4151;51.110;7.020;2024-03-02T08:23:16;9.00;99.90
8220;DHT22;4151;51.110;7.020;2024-03-02T08:25:42;9.20;99.90
8220;DHT22;4151;51.110;7.020;2024-03-02T08:28:08;9.50;99.90
8220;DHT22;4151;51.110;7.020;2024-03-02T08:30:33;9.90;99.90
8220;DHT22;4151;51.110;7.020;2024-03-02T08:32:59;10.00;99.90
8220;DHT22;4151;51.110;7.020;2024-03-02T08:35:25;10.40;99.90
8220;DHT22;4151;51.110;7.020;2024-03-02T08:37:51;10.60;99.90
8220;DHT22;4151;51.110;7.020;2024-03-02T08:40:17;11.00;99.90
8220;DHT22;4151;51.110;7.020;2024-03-02T08:42:43;11.30;99.90
8220;DHT22;4151;51.110;7.020;2024-03-02T08:45:09;11.30;99.90
8220;DHT22;4151;51.110;7.020;2024-03-02T08:47:34;11.50;99.90
8220;DHT22;4151;51.110;7.020;2024-03-02T08:50:00;11.70;99.90
8220;DHT22;4151;51.110;7.020;2024-03-02T08:52:26;11.90;99.90
8220;DHT22;4151;51.110;7.020;2024-03-02T08:54:52;11.90;99.90
8220;DHT22;4151;51.110;7.020;2024-03-02T08:57:17;11.80;99.90
8220;DHT22;4151;51.110;7.020;2024-03-02T08:59:43;11.70;99.90
8220;DHT22;4151;51.110;7.020;2024-03-02T09:02:09;11.40;99.90
8220;DHT22;4151;51.110;7.020;2024-03-02T09:04:35;11.20;99.90
8220;DHT22;4151;51.110;7.020;2024-03-02T09:07:00;11.40;99.90
8220;DHT22;4151;51.110;7.020;2024-03-02T09:09:26;11.40;99.90
8220;DHT22;4151;51.110;7.020;2024-03-02T09:11:52;11.60;99.90
8220;DHT22;4151;51.110;7.020;2024-03-02T09:14:20;11.80;99.90
8220;DHT22;4151;51.110;7.020;2024-03-02T09:16:46;11.90;99.90
8220;DHT22;4151;51.110;7.020;2024-03-02T09:19:11;11.90;99.90
8220;DHT22;4151;51.110;7.020;2024-03-02T09:21:37;12.10;99.90
8220;DHT22;4151;51.110;7.020;2024-03-02T09:24:03;12.10;99.90
8220;DHT22;4151;51.110;7.020;2024-03-02T09:26:29;11.90;99.90
8220;DHT22;4151;51.110;7.020;2024-03-02T09:28:54;12.10;99.90
8220;DHT22;4151;51.110;7.020;2024-03-02T09:31:20;12.30;99.90
8220;DHT22;4151;51.110;7.020;2024-03-02T09:33:45;12.40;99.90
8220;DHT22;4151;51.110;7.020;2024-03-02T09:36:22;12.50;99.90
8220;DHT22;4151;51.110;7.020;2024-03-02T09:38:48;13.10;99.90
8220;DHT22;4151;51.110;7.020;2024-03-02T09:41:14;13.40;99.90
8220;DHT22;4151;51.110;7.020;2024-03-02T09:43:40;13.40;99.90
8220;DHT22;4151;51.110;7.020;2024-03-02T09:46:08;13.50;99.90
8220;DHT22;4151;51.110;7.020;2024-03-02T09:48:36;13.70;99.90
8220;DHT22;4151;51.110;7.020;2024-03-02T09:51:01;14.20;99.90
8220;DHT22;4151;51.110;7.020;2024-03-02T09:53:31;14.30;99.90
8220;DHT22;4151;51.110;7.020;2024-03-02T09:55:57;14.10;99.90
8220;DHT22;4151;51.110;7.020;2024-03-02T09:58:23;13.90;99.90
8220;DHT22;4151;51.110;7.020;2024-03-02T10:00:49;14.10;99.90
8220;DHT22;4151;51.110;7.020;2024-03-02T10:03:15;14.10;99.90
8220;DHT22;4151;51.110;7.020;2024-03-02T10:05:40;14.00;99.90
8220;DHT22;4151;51.110;7.020;2024-03-02T10:08:06;14.20;99.90
8220;DHT22;4151;51.110;7.020;2024-03-02T10:10:36;14.20;99.90
8220;DHT22;4151;51.110;7.020;2024-03-02T10:13:09;14.20;99.90
8220;DHT22;4151;51.110;7.020;2024-03-02T10:15:35;14.10;99.90
8220;DHT22;4151;51.110;7.020;2024-03-02T10:18:07;14.00;99.90
8220;DHT22;4151;51.110;7.020;2024-03-02T10:20:33;14.30;99.90
8220;DHT22;4151;51.110;7.020;2024-03-02T10:23:14;14.40;99.90
8220;DHT22;4151;51.110;7.020;2024-03-02T10:25:40;14.60;99.90
8220;DHT22;4151;51.110;7.020;2024-03-02T10:28:06;14.70;99.90
8220;DHT22;4151;51.110;7.020;2024-03-02T10:30:35;14.70;99.90
8220;DHT22;4151;51.110;7.020;2024-03-02T10:33:02;14.70;99.90
8220;DHT22;4151;51.110;7.020;2024-03-02T10:35:27;14.90;99.90
8220;DHT22;4151;51.110;7.020;2024-03-02T10:37:53;15.40;99.90
8220;DHT22;4151;51.110;7.020;2024-03-02T10:40:22;15.60;99.90
8220;DHT22;4151;51.110;7.020;2024-03-02T10:42:50;16.00;99.90
8220;DHT22;4151;51.110;7.020;2024-03-02T10:45:15;15.60;99.90
8220;DHT22;4151;51.110;7.020;2024-03-02T10:47:42;15.20;99.90
8220;DHT22;4151;51.110;7.020;2024-03-02T10:50:09;15.00;99.90
8220;DHT22;4151;51.110;7.020;2024-03-02T10:52:35;15.30;99.90
8220;DHT22;4151;51.110;7.020;2024-03-02T10:55:01;15.60;99.90
8220;DHT22;4151;51.110;7.020;2024-03-02T10:57:33;16.00;99.90
8220;DHT22;4151;51.110;7.020;2024-03-02T11:00:03;16.10;99.90
8220;DHT22;4151;51.110;7.020;2024-03-02T11:02:31;16.20;99.90
8220;DHT22;4151;51.110;7.020;2024-03-02T11:04:59;16.10;99.90
8220;DHT22;4151;51.110;7.020;2024-03-02T11:07:26;16.30;99.90
8220;DHT22;4151;51.110;7.020;2024-03-02T11:09:59;16.20;99.90
8220;DHT22;4151;51.110;7.020;2024-03-02T11:12:30;16.20;99.90
8220;DHT22;4151;51.110;7.020;2024-03-02T11:14:58;16.50;99.90
8220;DHT22;4151;51.110;7.020;2024-03-02T11:17:24;16.70;99.90
8220;DHT22;4151;51.110;7.020;2024-03-02T11:19:50;17.20;99.90
8220;DHT22;4151;51.110;7.020;2024-03-02T11:22:16;17.40;99.90
8220;DHT22;4151;51.110;7.020;2024-03-02T11:24:52;16.90;99.90
8220;DHT22;4151;51.110;7.020;2024-03-02T11:32:59;15.90;99.90
8220;DHT22;4151;51.110;7.020;2024-03-02T11:35:25;16.40;99.90
8220;DHT22;4151;51.110;7.020;2024-03-02T11:37:52;16.70;99.90
8220;DHT22;4151;51.110;7.020;2024-03-02T11:40:30;17.40;99.90
8220;DHT22;4151;51.110;7.020;2024-03-02T11:42:59;17.80;99.90
8220;DHT22;4151;51.110;7.020;2024-03-02T11:45:26;17.50;99.90
8220;DHT22;4151;51.110;7.020;2024-03-02T11:47:58;16.90;99.90
8220;DHT22;4151;51.110;7.020;2024-03-02T11:50:34;16.90;99.90
8220;DHT22;4151;51.110;7.020;2024-03-02T11:53:05;16.80;99.90
8220;DHT22;4151;51.110;7.020;2024-03-02T11:55:38;16.80;99.90
8220;DHT22;4151;51.110;7.020;2024-03-02T11:58:09;17.00;99.90
8220;DHT22;4151;51.110;7.020;2024-03-02T12:00:35;16.90;99.90
8220;DHT22;4151;51.110;7.020;2024-03-02T12:03:04;16.70;99.90
8220;DHT22;4151;51.110;7.020;2024-03-02T12:05:31;16.90;99.90
8220;DHT22;4151;51.110;7.020;2024-03-02T12:07:58;17.10;99.90
8220;DHT22;4151;51.110;7.020;2024-03-02T12:10:25;17.10;99.90
8220;DHT22;4151;51.110;7.020;2024-03-02T12:13:01;16.60;99.90
8220;DHT22;4151;51.110;7.020;2024-03-02T12:15:31;16.20;99.90
8220;DHT22;4151;51.110;7.020;2024-03-02T12:17:59;16.30;99.90
8220;DHT22;4151;51.110;7.020;2024-03-02T12:20:27;16.10;99.90
8220;DHT22;4151;51.110;7.020;2024-03-02T12:22:55;15.50;99.90
8220;DHT22;4151;51.110;7.020;2024-03-02T12:25:21;15.30;99.90
8220;DHT22;4151;51.110;7.020;2024-03-02T12:27:50;14.90;99.90
8220;DHT22;4151;51.110;7.020;2024-03-02T12:30:19;14.90;99.90
8220;DHT22;4151;51.110;7.020;2024-03-02T12:32:45;15.20;99.90
8220;DHT22;4151;51.110;7.020;2024-03-02T12:35:11;15.50;99.90
8220;DHT22;4151;51.110;7.020;2024-03-02T12:37:47;15.50;99.90
8220;DHT22;4151;51.110;7.020;2024-03-02T12:40:14;15.50;99.90
8220;DHT22;4151;51.110;7.020;2024-03-02T12:42:41;15.40;99.90
8220;DHT22;4151;51.110;7.020;2024-03-02T12:45:07;15.30;99.90
8220;DHT22;4151;51.110;7.020;2024-03-02T12:47:34;15.50;99.90
8220;DHT22;4151;51.110;7.020;2024-03-02T12:50:00;15.40;99.90
8220;DHT22;4151;51.110;7.020;2024-03-02T12:52:26;15.40;99.90
8220;DHT22;4151;51.110;7.020;2024-03-02T12:54:51;15.30;99.90
8220;DHT22;4151;51.110;7.020;2024-03-02T12:57:21;15.10;99.90
8220;DHT22;4151;51.110;7.020;2024-03-02T12:59:47;14.80;99.90
8220;DHT22;4151;51.110;7.020;2024-03-02T13:02:19;14.80;99.90
8220;DHT22;4151;51.110;7.020;2024-03-02T13:04:52;14.80;99.90
8220;DHT22;4151;51.110;7.020;2024-03-02T13:07:19;14.60;99.90
8220;DHT22;4151;51.110;7.020;2024-03-02T13:09:45;14.50;99.90
8220;DHT22;4151;51.110;7.020;2024-03-02T13:12:11;14.50;99.90
8220;DHT22;4151;51.110;7.020;2024-03-02T13:14:37;14.60;99.90
8220;DHT22;4151;51.110;7.020;2024-03-02T13:17:03;14.50;99.90
8220;DHT22;4151;51.110;7.020;2024-03-02T13:19:30;14.50;99.90
8220;DHT22;4151;51.110;7.020;2024-03-02T13:21:56;14.60;99.90
8220;DHT22;4151;51.110;7.020;2024-03-02T13:24:22;14.70;99.90
8220;DHT22;4151;51.110;7.020;2024-03-02T13:26:51;15.00;99.90
8220;DHT22;4151;51.110;7.020;2024-03-02T13:29:21;15.40;99.90
8220;DHT22;4151;51.110;7.020;2024-03-02T13:31:46;15.40;99.90
8220;DHT22;4151;51.110;7.020;2024-03-02T13:34:12;15.80;99.90
8220;DHT22;4151;51.110;7.020;2024-03-02T13:36:37;16.30;99.90
8220;DHT22;4151;51.110;7.020;2024-03-02T13:39:04;16.50;99.90
8220;DHT22;4151;51.110;7.020;2024-03-02T13:41:35;17.00;99.90
8220;DHT22;4151;51.110;7.020;2024-03-02T13:44:01;17.60;99.90
8220;DHT22;4151;51.110;7.020;2024-03-02T13:46:27;17.20;99.90
8220;DHT22;4151;51.110;7.020;2024-03-02T13:48:53;17.00;99.90
8220;DHT22;4151;51.110;7.020;2024-03-02T13:51:19;16.50;99.90
8220;DHT22;4151;51.110;7.020;2024-03-02T13:53:44;16.10;99.90
8220;DHT22;4151;51.110;7.020;2024-03-02T13:56:10;15.80;99.90
8220;DHT22;4151;51.110;7.020;2024-03-02T13:58:36;15.70;99.90
8220;DHT22;4151;51.110;7.020;2024-03-02T14:01:01;15.60;99.90
8220;DHT22;4151;51.110;7.020;2024-03-02T14:03:30;15.40;99.90
8220;DHT22;4151;51.110;7.020;2024-03-02T14:05:55;15.30;99.90
8220;DHT22;4151;51.110;7.020;2024-03-02T14:08:21;15.60;99.90
8220;DHT22;4151;51.110;7.020;2024-03-02T14:10:47;15.80;99.90
8220;DHT22;4151;51.110;7.020;2024-03-02T14:13:12;16.20;99.90
8220;DHT22;4151;51.110;7.020;2024-03-02T14:15:38;16.40;99.90
8220;DHT22;4151;51.110;7.020;2024-03-02T14:18:05;17.00;99.90
8220;DHT22;4151;51.110;7.020;2024-03-02T14:20:31;17.50;99.90
8220;DHT22;4151;51.110;7.020;2024-03-02T14:22:58;17.30;99.90
8220;DHT22;4151;51.110;7.020;2024-03-02T14:25:24;17.00;99.90
8220;DHT22;4151;51.110;7.020;2024-03-02T14:27:50;16.30;99.90
8220;DHT22;4151;51.110;7.020;2024-03-02T14:30:16;16.10;99.90
8220;DHT22;4151;51.110;7.020;2024-03-02T14:32:42;16.00;99.90
8220;DHT22;4151;51.110;7.020;2024-03-02T14:35:08;15.70;99.90
8220;DHT22;4151;51.110;7.020;2024-03-02T14:37:36;15.50;99.90
8220;DHT22;4151;51.110;7.020;2024-03-02T14:40:02;15.30;99.90
8220;DHT22;4151;51.110;7.020;2024-03-02T14:42:30;15.50;99.90
8220;DHT22;4151;51.110;7.020;2024-03-02T14:44:57;15.50;99.90
8220;DHT22;4151;51.110;7.020;2024-03-02T14:47:22;15.50;99.90
8220;DHT22;4151;51.110;7.020;2024-03-02T14:49:48;15.30;99.90
8220;DHT22;4151;51.110;7.020;2024-03-02T14:52:13;15.20;99.90
8220;DHT22;4151;51.110;7.020;2024-03-02T14:54:39;15.10;99.90
8220;DHT22;4151;51.110;7.020;2024-03-02T14:57:05;15.10;99.90
8220;DHT22;4151;51.110;7.020;2024-03-02T14:59:30;15.00;99.90
8220;DHT22;4151;51.110;7.020;2024-03-02T15:01:56;15.00;99.90
8220;DHT22;4151;51.110;7.020;2024-03-02T15:04:22;15.10;99.90
8220;DHT22;4151;51.110;7.020;2024-03-02T15:06:48;15.10;99.90
8220;DHT22;4151;51.110;7.020;2024-03-02T15:09:13;15.30;99.90
8220;DHT22;4151;51.110;7.020;2024-03-02T15:11:39;15.30;99.90
8220;DHT22;4151;51.110;7.020;2024-03-02T15:14:05;15.10;99.90
8220;DHT22;4151;51.110;7.020;2024-03-02T15:16:30;14.90;99.90
8220;DHT22;4151;51.110;7.020;2024-03-02T15:18:56;14.70;99.90
8220;DHT22;4151;51.110;7.020;2024-03-02T15:21:21;14.50;99.90
8220;DHT22;4151;51.110;7.020;2024-03-02T15:23:47;14.40;99.90
8220;DHT22;4151;51.110;7.020;2024-03-02T15:26:12;14.30;99.90
8220;DHT22;4151;51.110;7.020;2024-03-02T15:28:38;14.20;99.90
8220;DHT22;4151;51.110;7.020;2024-03-02T15:31:04;14.20;99.90
8220;DHT22;4151;51.110;7.020;2024-03-02T15:33:30;14.20;99.90
8220;DHT22;4151;51.110;7.020;2024-03-02T15:35:58;14.30;99.90
8220;DHT22;4151;51.110;7.020;2024-03-02T15:38:24;14.30;99.90
8220;DHT22;4151;51.110;7.020;2024-03-02T15:40:50;14.30;99.90
8220;DHT22;4151;51.110;7.020;2024-03-02T15:43:15;14.40;99.90
8220;DHT22;4151;51.110;7.020;2024-03-02T15:45:41;14.40;99.90
8220;DHT22;4151;51.110;7.020;2024-03-02T15:48:06;14.40;99.90
8220;DHT22;4151;51.110;7.020;2024-03-02T15:50:32;14.40;99.90
8220;DHT22;4151;51.110;7.020;2024-03-02T15:52:58;14.40;99.90
8220;DHT22;4151;51.110;7.020;2024-03-02T15:55:28;14.30;99.90
8220;DHT22;4151;51.110;7.020;2024-03-02T15:57:53;14.30;99.90
8220;DHT22;4151;51.110;7.020;2024-03-02T16:00:19;14.20;99.90
8220;DHT22;4151;51.110;7.020;2024-03-02T16:02:45;14.20;99.90
8220;DHT22;4151;51.110;7.020;2024-03-02T16:05:10;14.20;99.90
8220;DHT22;4151;51.110;7.020;2024-03-02T16:07:36;14.20;99.90
8220;DHT22;4151;51.110;7.020;2024-03-02T16:10:02;14.20;99.90
8220;DHT22;4151;51.110;7.020;2024-03-02T16:12:31;14.20;99.90